sensor_id;sensor_type;location;lat;lon;timestamp;P1;durP1;ratioP1;P2;durP2;ratioP2
3573;SDS011;1801;51.050;6.246;2023-10-31T00:01:23;11.27;;;6.57;;
3573;SDS011;1801;51.050;6.246;2023-10-31T00:03:48;12.80;;;6.93;;
3573;SDS011;1801;51.050;6.246;2023-10-31T00:06:14;14.90;;;7.97;;
3573;SDS011;1801;51.050;6.246;2023-10-31T00:08:39;14.90;;;7.40;;
3573;SDS011;1801;51.050;6.246;2023-10-31T00:11:04;13.00;;;8.40;;
3573;SDS011;1801;51.050;6.246;2023-10-31T00:13:29;11.27;;;6.40;;
3573;SDS011;1801;51.050;6.246;2023-10-31T00:15:55;13.23;;;7.10;;
3573;SDS011;1801;51.050;6.246;2023-10-31T00:18:20;10.80;;;6.53;;
3573;SDS011;1801;51.050;6.246;2023-10-31T00:20:46;33.73;;;5.50;;
3573;SDS011;1801;51.050;6.246;2023-10-31T00:23:11;14.50;;;6.17;;
3573;SDS011;1801;51.050;6.246;2023-10-31T00:25:36;14.93;;;5.80;;
3573;SDS011;1801;51.050;6.246;2023-10-31T00:28:01;5.83;;;4.23;;
3573;SDS011;1801;51.050;6.246;2023-10-31T00:30:26;6.97;;;4.20;;
3573;SDS011;1801;51.050;6.246;2023-10-31T00:32:52;8.13;;;4.50;;
3573;SDS011;1801;51.050;6.246;2023-10-31T00:35:17;8.87;;;4.47;;
3573;SDS011;1801;51.050;6.246;2023-10-31T00:37:42;5.80;;;3.37;;
3573;SDS011;1801;51.050;6.246;2023-10-31T00:40:08;9.87;;;3.80;;
3573;SDS011;1801;51.050;6.246;2023-10-31T00:42:36;8.30;;;3.60;;
3573;SDS011;1801;51.050;6.246;2023-10-31T00:45:01;6.10;;;3.90;;
3573;SDS011;1801;51.050;6.246;2023-10-31T00:47:26;6.17;;;4.13;;
3573;SDS011;1801;51.050;6.246;2023-10-31T00:49:52;9.87;;;4.50;;
3573;SDS011;1801;51.050;6.246;2023-10-31T00:52:18;6.70;;;3.50;;
3573;SDS011;1801;51.050;6.246;2023-10-31T00:54:43;7.10;;;4.20;;
3573;SDS011;1801;51.050;6.246;2023-10-31T00:57:08;4.17;;;3.70;;
3573;SDS011;1801;51.050;6.246;2023-10-31T00:59:33;8.13;;;4.00;;
3573;SDS011;1801;51.050;6.246;2023-10-31T01:01:59;6.90;;;3.93;;
3573;SDS011;1801;51.050;6.246;2023-10-31T01:04:24;16.00;;;4.70;;
3573;SDS011;1801;51.050;6.246;2023-10-31T01:06:50;4.97;;;3.60;;
3573;SDS011;1801;51.050;6.246;2023-10-31T01:09:16;13.70;;;5.97;;
3573;SDS011;1801;51.050;6.246;2023-10-31T01:11:41;10.00;;;3.93;;
3573;SDS011;1801;51.050;6.246;2023-10-31T01:14:06;11.20;;;4.40;;
3573;SDS011;1801;51.050;6.246;2023-10-31T01:16:31;13.40;;;4.47;;
3573;SDS011;1801;51.050;6.246;2023-10-31T01:18:56;7.30;;;3.70;;
3573;SDS011;1801;51.050;6.246;2023-10-31T01:21:22;8.83;;;3.80;;
3573;SDS011;1801;51.050;6.246;2023-10-31T01:23:47;7.70;;;4.40;;
3573;SDS011;1801;51.050;6.246;2023-10-31T01:26:12;13.03;;;4.30;;
3573;SDS011;1801;51.050;6.246;2023-10-31T01:28:37;10.20;;;4.80;;
3573;SDS011;1801;51.050;6.246;2023-10-31T01:31:03;12.93;;;4.37;;
3573;SDS011;1801;51.050;6.246;2023-10-31T01:33:28;10.63;;;5.03;;
3573;SDS011;1801;51.050;6.246;2023-10-31T01:35:53;10.63;;;4.77;;
3573;SDS011;1801;51.050;6.246;2023-10-31T01:38:18;13.50;;;7.90;;
3573;SDS011;1801;51.050;6.246;2023-10-31T01:40:44;7.80;;;3.90;;
3573;SDS011;1801;51.050;6.246;2023-10-31T01:43:09;12.43;;;5.00;;
3573;SDS011;1801;51.050;6.246;2023-10-31T01:45:34;11.23;;;4.70;;
3573;SDS011;1801;51.050;6.246;2023-10-31T01:47:59;12.20;;;4.70;;
3573;SDS011;1801;51.050;6.246;2023-10-31T01:50:24;13.63;;;5.60;;
3573;SDS011;1801;51.050;6.246;2023-10-31T01:52:50;12.50;;;4.87;;
3573;SDS011;1801;51.050;6.246;2023-10-31T01:55:16;8.43;;;4.10;;
3573;SDS011;1801;51.050;6.246;2023-10-31T01:57:43;12.63;;;4.30;;
3573;SDS011;1801;51.050;6.246;2023-10-31T02:00:09;15.70;;;5.43;;
3573;SDS011;1801;51.050;6.246;2023-10-31T02:02:35;10.33;;;5.73;;
3573;SDS011;1801;51.050;6.246;2023-10-31T02:05:02;11.33;;;5.63;;
3573;SDS011;1801;51.050;6.246;2023-10-31T02:07:27;20.33;;;6.17;;
3573;SDS011;1801;51.050;6.246;2023-10-31T02:09:53;11.00;;;4.83;;
3573;SDS011;1801;51.050;6.246;2023-10-31T02:12:31;16.10;;;6.70;;
3573;SDS011;1801;51.050;6.246;2023-10-31T02:14:56;14.27;;;5.43;;
3573;SDS011;1801;51.050;6.246;2023-10-31T02:17:22;12.23;;;5.63;;
3573;SDS011;1801;51.050;6.246;2023-10-31T02:19:47;16.23;;;6.33;;
3573;SDS011;1801;51.050;6.246;2023-10-31T02:22:12;18.63;;;6.23;;
3573;SDS011;1801;51.050;6.246;2023-10-31T02:24:37;13.07;;;6.10;;
3573;SDS011;1801;51.050;6.246;2023-10-31T02:27:02;11.80;;;5.60;;
3573;SDS011;1801;51.050;6.246;2023-10-31T02:29:28;15.50;;;6.80;;
3573;SDS011;1801;51.050;6.246;2023-10-31T02:31:53;10.80;;;5.53;;
3573;SDS011;1801;51.050;6.246;2023-10-31T02:34:19;13.73;;;6.47;;
3573;SDS011;1801;51.050;6.246;2023-10-31T02:36:44;11.17;;;6.30;;
3573;SDS011;1801;51.050;6.246;2023-10-31T02:39:10;14.23;;;5.60;;
3573;SDS011;1801;51.050;6.246;2023-10-31T02:41:35;13.70;;;5.77;;
3573;SDS011;1801;51.050;6.246;2023-10-31T02:44:00;8.87;;;3.50;;
3573;SDS011;1801;51.050;6.246;2023-10-31T02:46:25;10.40;;;5.13;;
3573;SDS011;1801;51.050;6.246;2023-10-31T02:48:50;10.00;;;4.97;;
3573;SDS011;1801;51.050;6.246;2023-10-31T02:51:16;8.83;;;3.73;;
3573;SDS011;1801;51.050;6.246;2023-10-31T02:53:42;10.23;;;4.80;;
3573;SDS011;1801;51.050;6.246;2023-10-31T02:56:07;10.20;;;4.50;;
3573;SDS011;1801;51.050;6.246;2023-10-31T02:58:32;9.63;;;3.80;;
3573;SDS011;1801;51.050;6.246;2023-10-31T03:00:57;9.50;;;5.33;;
3573;SDS011;1801;51.050;6.246;2023-10-31T03:03:23;7.57;;;3.30;;
3573;SDS011;1801;51.050;6.246;2023-10-31T03:05:48;8.30;;;3.27;;
3573;SDS011;1801;51.050;6.246;2023-10-31T03:08:13;7.90;;;3.40;;
3573;SDS011;1801;51.050;6.246;2023-10-31T03:10:38;11.27;;;4.80;;
3573;SDS011;1801;51.050;6.246;2023-10-31T03:13:04;4.77;;;3.20;;
3573;SDS011;1801;51.050;6.246;2023-10-31T03:15:29;3.43;;;2.63;;
3573;SDS011;1801;51.050;6.246;2023-10-31T03:17:54;7.67;;;4.03;;
3573;SDS011;1801;51.050;6.246;2023-10-31T03:20:19;5.63;;;2.93;;
3573;SDS011;1801;51.050;6.246;2023-10-31T03:22:45;5.70;;;2.50;;
3573;SDS011;1801;51.050;6.246;2023-10-31T03:25:10;5.17;;;3.07;;
3573;SDS011;1801;51.050;6.246;2023-10-31T03:27:35;4.93;;;3.40;;
3573;SDS011;1801;51.050;6.246;2023-10-31T03:30:00;3.30;;;2.57;;
3573;SDS011;1801;51.050;6.246;2023-10-31T03:32:26;11.90;;;3.57;;
3573;SDS011;1801;51.050;6.246;2023-10-31T03:34:51;5.93;;;3.63;;
3573;SDS011;1801;51.050;6.246;2023-10-31T03:37:16;5.77;;;3.40;;
3573;SDS011;1801;51.050;6.246;2023-10-31T03:39:41;4.00;;;2.40;;
3573;SDS011;1801;51.050;6.246;2023-10-31T03:42:07;6.07;;;3.40;;
3573;SDS011;1801;51.050;6.246;2023-10-31T03:44:32;5.77;;;3.33;;
3573;SDS011;1801;51.050;6.246;2023-10-31T03:46:57;6.00;;;3.53;;
3573;SDS011;1801;51.050;6.246;2023-10-31T03:49:23;6.87;;;3.83;;
3573;SDS011;1801;51.050;6.246;2023-10-31T03:51:48;4.87;;;3.43;;
3573;SDS011;1801;51.050;6.246;2023-10-31T03:54:13;5.77;;;4.13;;
3573;SDS011;1801;51.050;6.246;2023-10-31T03:56:39;7.63;;;4.40;;
3573;SDS011;1801;51.050;6.246;2023-10-31T03:59:11;7.83;;;4.27;;
3573;SDS011;1801;51.050;6.246;2023-10-31T04:01:36;5.03;;;3.10;;
3573;SDS011;1801;51.050;6.246;2023-10-31T04:04:02;6.83;;;4.50;;
3573;SDS011;1801;51.050;6.246;2023-10-31T04:06:27;20.17;;;3.03;;
3573;SDS011;1801;51.050;6.246;2023-10-31T04:08:53;10.63;;;4.33;;
3573;SDS011;1801;51.050;6.246;2023-10-31T04:11:18;4.20;;;3.70;;
3573;SDS011;1801;51.050;6.246;2023-10-31T04:13:43;5.17;;;3.60;;
3573;SDS011;1801;51.050;6.246;2023-10-31T04:16:08;7.97;;;4.23;;
3573;SDS011;1801;51.050;6.246;2023-10-31T04:18:33;10.27;;;4.03;;
3573;SDS011;1801;51.050;6.246;2023-10-31T04:20:59;8.43;;;4.43;;
3573;SDS011;1801;51.050;6.246;2023-10-31T04:23:24;10.63;;;5.17;;
3573;SDS011;1801;51.050;6.246;2023-10-31T04:25:49;6.20;;;4.07;;
3573;SDS011;1801;51.050;6.246;2023-10-31T04:28:17;6.40;;;4.20;;
3573;SDS011;1801;51.050;6.246;2023-10-31T04:30:42;7.83;;;4.43;;
3573;SDS011;1801;51.050;6.246;2023-10-31T04:33:07;8.73;;;5.17;;
3573;SDS011;1801;51.050;6.246;2023-10-31T04:35:32;6.77;;;3.53;;
3573;SDS011;1801;51.050;6.246;2023-10-31T04:37:58;6.33;;;3.70;;
3573;SDS011;1801;51.050;6.246;2023-10-31T04:40:23;8.50;;;3.80;;
3573;SDS011;1801;51.050;6.246;2023-10-31T04:42:48;5.10;;;2.80;;
3573;SDS011;1801;51.050;6.246;2023-10-31T04:45:14;3.53;;;3.00;;
3573;SDS011;1801;51.050;6.246;2023-10-31T04:47:39;5.03;;;3.70;;
3573;SDS011;1801;51.050;6.246;2023-10-31T04:50:05;4.77;;;3.90;;
3573;SDS011;1801;51.050;6.246;2023-10-31T04:52:30;5.70;;;3.53;;
3573;SDS011;1801;51.050;6.246;2023-10-31T04:54:55;4.73;;;3.10;;
3573;SDS011;1801;51.050;6.246;2023-10-31T04:57:20;6.67;;;3.80;;
3573;SDS011;1801;51.050;6.246;2023-10-31T04:59:46;6.83;;;4.07;;
3573;SDS011;1801;51.050;6.246;2023-10-31T05:02:11;12.23;;;3.37;;
3573;SDS011;1801;51.050;6.246;2023-10-31T05:04:39;4.90;;;3.67;;
3573;SDS011;1801;51.050;6.246;2023-10-31T05:07:05;6.97;;;3.60;;
3573;SDS011;1801;51.050;6.246;2023-10-31T05:09:30;4.93;;;3.30;;
3573;SDS011;1801;51.050;6.246;2023-10-31T05:11:55;5.50;;;3.77;;
3573;SDS011;1801;51.050;6.246;2023-10-31T05:14:21;5.70;;;3.30;;
3573;SDS011;1801;51.050;6.246;2023-10-31T05:16:46;8.20;;;4.40;;
3573;SDS011;1801;51.050;6.246;2023-10-31T05:19:11;5.67;;;2.53;;
3573;SDS011;1801;51.050;6.246;2023-10-31T05:21:37;4.23;;;3.03;;
3573;SDS011;1801;51.050;6.246;2023-10-31T05:24:02;3.10;;;2.80;;
3573;SDS011;1801;51.050;6.246;2023-10-31T05:26:27;6.73;;;3.67;;
3573;SDS011;1801;51.050;6.246;2023-10-31T05:28:54;4.97;;;3.43;;
3573;SDS011;1801;51.050;6.246;2023-10-31T05:31:19;5.37;;;2.90;;
3573;SDS011;1801;51.050;6.246;2023-10-31T05:33:44;8.90;;;4.27;;
3573;SDS011;1801;51.050;6.246;2023-10-31T05:36:19;5.60;;;4.10;;
3573;SDS011;1801;51.050;6.246;2023-10-31T05:38:45;6.50;;;4.17;;
3573;SDS011;1801;51.050;6.246;2023-10-31T05:41:10;5.73;;;4.33;;
3573;SDS011;1801;51.050;6.246;2023-10-31T05:43:35;9.00;;;3.77;;
3573;SDS011;1801;51.050;6.246;2023-10-31T05:46:00;7.73;;;3.93;;
3573;SDS011;1801;51.050;6.246;2023-10-31T05:48:25;4.77;;;3.20;;
3573;SDS011;1801;51.050;6.246;2023-10-31T05:50:50;6.30;;;3.97;;
3573;SDS011;1801;51.050;6.246;2023-10-31T05:53:16;6.17;;;4.27;;
3573;SDS011;1801;51.050;6.246;2023-10-31T05:55:41;5.50;;;3.80;;
3573;SDS011;1801;51.050;6.246;2023-10-31T05:58:06;6.80;;;4.30;;
3573;SDS011;1801;51.050;6.246;2023-10-31T06:00:31;6.43;;;4.40;;
3573;SDS011;1801;51.050;6.246;2023-10-31T06:02:56;7.87;;;3.80;;
3573;SDS011;1801;51.050;6.246;2023-10-31T06:05:21;6.50;;;4.67;;
3573;SDS011;1801;51.050;6.246;2023-10-31T06:07:47;10.40;;;5.23;;
3573;SDS011;1801;51.050;6.246;2023-10-31T06:10:13;7.37;;;5.00;;
3573;SDS011;1801;51.050;6.246;2023-10-31T06:12:38;9.57;;;5.90;;
3573;SDS011;1801;51.050;6.246;2023-10-31T06:15:03;7.70;;;4.30;;
3573;SDS011;1801;51.050;6.246;2023-10-31T06:17:28;10.17;;;5.37;;
3573;SDS011;1801;51.050;6.246;2023-10-31T06:19:55;9.93;;;6.17;;
3573;SDS011;1801;51.050;6.246;2023-10-31T06:22:20;5.90;;;3.40;;
3573;SDS011;1801;51.050;6.246;2023-10-31T06:24:45;12.17;;;5.10;;
3573;SDS011;1801;51.050;6.246;2023-10-31T06:27:10;7.30;;;4.00;;
3573;SDS011;1801;51.050;6.246;2023-10-31T06:29:36;13.17;;;4.77;;
3573;SDS011;1801;51.050;6.246;2023-10-31T06:32:01;9.57;;;4.90;;
3573;SDS011;1801;51.050;6.246;2023-10-31T06:34:26;12.03;;;5.73;;
3573;SDS011;1801;51.050;6.246;2023-10-31T06:36:51;9.63;;;5.10;;
3573;SDS011;1801;51.050;6.246;2023-10-31T06:39:17;8.03;;;4.80;;
3573;SDS011;1801;51.050;6.246;2023-10-31T06:41:42;9.90;;;6.00;;
3573;SDS011;1801;51.050;6.246;2023-10-31T06:44:07;11.50;;;5.50;;
3573;SDS011;1801;51.050;6.246;2023-10-31T06:46:32;9.00;;;4.90;;
3573;SDS011;1801;51.050;6.246;2023-10-31T06:48:58;14.60;;;6.73;;
3573;SDS011;1801;51.050;6.246;2023-10-31T06:51:23;10.27;;;5.63;;
3573;SDS011;1801;51.050;6.246;2023-10-31T06:53:48;20.10;;;7.30;;
3573;SDS011;1801;51.050;6.246;2023-10-31T06:56:13;12.53;;;5.90;;
3573;SDS011;1801;51.050;6.246;2023-10-31T06:58:39;10.07;;;5.57;;
3573;SDS011;1801;51.050;6.246;2023-10-31T07:01:04;10.33;;;5.13;;
3573;SDS011;1801;51.050;6.246;2023-10-31T07:03:29;11.50;;;5.50;;
3573;SDS011;1801;51.050;6.246;2023-10-31T07:05:54;9.67;;;5.30;;
3573;SDS011;1801;51.050;6.246;2023-10-31T07:08:21;9.07;;;6.03;;
3573;SDS011;1801;51.050;6.246;2023-10-31T07:10:46;11.93;;;5.83;;
3573;SDS011;1801;51.050;6.246;2023-10-31T07:13:11;8.60;;;4.33;;
3573;SDS011;1801;51.050;6.246;2023-10-31T07:15:37;16.70;;;6.10;;
3573;SDS011;1801;51.050;6.246;2023-10-31T07:18:04;13.23;;;5.90;;
3573;SDS011;1801;51.050;6.246;2023-10-31T07:20:29;13.93;;;6.63;;
3573;SDS011;1801;51.050;6.246;2023-10-31T07:22:54;9.90;;;5.30;;
3573;SDS011;1801;51.050;6.246;2023-10-31T07:25:20;11.17;;;6.20;;
3573;SDS011;1801;51.050;6.246;2023-10-31T07:27:45;8.33;;;5.00;;
3573;SDS011;1801;51.050;6.246;2023-10-31T07:30:11;12.17;;;6.40;;
3573;SDS011;1801;51.050;6.246;2023-10-31T07:32:36;12.17;;;5.60;;
3573;SDS011;1801;51.050;6.246;2023-10-31T07:35:01;9.83;;;4.90;;
3573;SDS011;1801;51.050;6.246;2023-10-31T07:37:27;12.27;;;5.20;;
3573;SDS011;1801;51.050;6.246;2023-10-31T07:39:52;11.70;;;6.00;;
3573;SDS011;1801;51.050;6.246;2023-10-31T07:42:17;16.63;;;7.10;;
3573;SDS011;1801;51.050;6.246;2023-10-31T07:44:43;17.87;;;7.50;;
3573;SDS011;1801;51.050;6.246;2023-10-31T07:47:08;17.60;;;6.30;;
3573;SDS011;1801;51.050;6.246;2023-10-31T07:49:33;9.73;;;5.53;;
3573;SDS011;1801;51.050;6.246;2023-10-31T07:51:58;8.57;;;5.20;;
3573;SDS011;1801;51.050;6.246;2023-10-31T07:54:24;8.63;;;5.27;;
3573;SDS011;1801;51.050;6.246;2023-10-31T07:56:49;11.13;;;5.53;;
3573;SDS011;1801;51.050;6.246;2023-10-31T07:59:14;9.50;;;5.50;;
3573;SDS011;1801;51.050;6.246;2023-10-31T08:01:39;10.87;;;6.47;;
3573;SDS011;1801;51.050;6.246;2023-10-31T08:04:04;11.30;;;5.93;;
3573;SDS011;1801;51.050;6.246;2023-10-31T08:06:30;9.27;;;6.07;;
3573;SDS011;1801;51.050;6.246;2023-10-31T08:08:55;10.80;;;5.67;;
3573;SDS011;1801;51.050;6.246;2023-10-31T08:11:20;10.60;;;5.90;;
3573;SDS011;1801;51.050;6.246;2023-10-31T08:13:45;13.17;;;5.83;;
3573;SDS011;1801;51.050;6.246;2023-10-31T08:16:16;13.13;;;6.17;;
3573;SDS011;1801;51.050;6.246;2023-10-31T08:18:41;8.00;;;4.90;;
3573;SDS011;1801;51.050;6.246;2023-10-31T08:21:06;10.07;;;4.67;;
3573;SDS011;1801;51.050;6.246;2023-10-31T08:23:32;12.53;;;5.20;;
3573;SDS011;1801;51.050;6.246;2023-10-31T08:25:57;9.43;;;5.63;;
3573;SDS011;1801;51.050;6.246;2023-10-31T08:28:22;6.37;;;4.17;;
3573;SDS011;1801;51.050;6.246;2023-10-31T08:30:47;6.97;;;3.93;;
3573;SDS011;1801;51.050;6.246;2023-10-31T08:33:13;10.10;;;5.53;;
3573;SDS011;1801;51.050;6.246;2023-10-31T08:35:39;13.63;;;4.83;;
3573;SDS011;1801;51.050;6.246;2023-10-31T08:38:04;8.97;;;4.23;;
3573;SDS011;1801;51.050;6.246;2023-10-31T08:40:29;7.87;;;4.37;;
3573;SDS011;1801;51.050;6.246;2023-10-31T08:42:54;6.10;;;3.70;;
3573;SDS011;1801;51.050;6.246;2023-10-31T08:45:20;5.43;;;4.10;;
3573;SDS011;1801;51.050;6.246;2023-10-31T08:47:45;7.70;;;4.30;;
3573;SDS011;1801;51.050;6.246;2023-10-31T08:50:10;12.23;;;4.77;;
3573;SDS011;1801;51.050;6.246;2023-10-31T08:52:36;7.37;;;4.60;;
3573;SDS011;1801;51.050;6.246;2023-10-31T08:55:01;11.33;;;3.90;;
3573;SDS011;1801;51.050;6.246;2023-10-31T08:57:27;5.80;;;3.70;;
3573;SDS011;1801;51.050;6.246;2023-10-31T08:59:52;7.10;;;3.60;;
3573;SDS011;1801;51.050;6.246;2023-10-31T09:02:17;6.67;;;3.17;;
3573;SDS011;1801;51.050;6.246;2023-10-31T09:04:42;5.53;;;3.20;;
3573;SDS011;1801;51.050;6.246;2023-10-31T09:07:07;6.27;;;2.73;;
3573;SDS011;1801;51.050;6.246;2023-10-31T09:09:32;2.83;;;2.30;;
3573;SDS011;1801;51.050;6.246;2023-10-31T09:11:58;5.10;;;2.47;;
3573;SDS011;1801;51.050;6.246;2023-10-31T09:14:23;3.00;;;2.10;;
3573;SDS011;1801;51.050;6.246;2023-10-31T09:16:48;2.63;;;1.80;;
3573;SDS011;1801;51.050;6.246;2023-10-31T09:19:13;3.53;;;2.40;;
3573;SDS011;1801;51.050;6.246;2023-10-31T09:21:38;3.83;;;1.80;;
3573;SDS011;1801;51.050;6.246;2023-10-31T09:24:04;2.77;;;2.30;;
3573;SDS011;1801;51.050;6.246;2023-10-31T09:26:29;2.37;;;1.83;;
3573;SDS011;1801;51.050;6.246;2023-10-31T09:28:54;3.77;;;2.13;;
3573;SDS011;1801;51.050;6.246;2023-10-31T09:31:20;5.40;;;1.77;;
3573;SDS011;1801;51.050;6.246;2023-10-31T09:33:45;8.23;;;2.57;;
3573;SDS011;1801;51.050;6.246;2023-10-31T09:36:11;3.47;;;2.30;;
3573;SDS011;1801;51.050;6.246;2023-10-31T09:38:36;4.07;;;2.47;;
3573;SDS011;1801;51.050;6.246;2023-10-31T09:41:02;3.13;;;2.50;;
3573;SDS011;1801;51.050;6.246;2023-10-31T09:43:27;8.30;;;3.20;;
3573;SDS011;1801;51.050;6.246;2023-10-31T09:45:52;3.23;;;2.70;;
3573;SDS011;1801;51.050;6.246;2023-10-31T09:48:18;2.53;;;2.33;;
3573;SDS011;1801;51.050;6.246;2023-10-31T09:50:44;3.13;;;2.23;;
3573;SDS011;1801;51.050;6.246;2023-10-31T09:53:09;3.33;;;2.03;;
3573;SDS011;1801;51.050;6.246;2023-10-31T09:55:35;4.67;;;2.67;;
3573;SDS011;1801;51.050;6.246;2023-10-31T09:58:00;7.20;;;2.53;;
3573;SDS011;1801;51.050;6.246;2023-10-31T10:00:25;5.23;;;2.10;;
3573;SDS011;1801;51.050;6.246;2023-10-31T10:02:51;4.60;;;2.60;;
3573;SDS011;1801;51.050;6.246;2023-10-31T10:05:16;2.47;;;2.27;;
3573;SDS011;1801;51.050;6.246;2023-10-31T10:07:42;3.07;;;1.93;;
3573;SDS011;1801;51.050;6.246;2023-10-31T10:10:12;2.60;;;2.20;;
3573;SDS011;1801;51.050;6.246;2023-10-31T10:12:37;4.50;;;1.90;;
3573;SDS011;1801;51.050;6.246;2023-10-31T10:15:02;2.63;;;2.40;;
3573;SDS011;1801;51.050;6.246;2023-10-31T10:17:28;4.70;;;2.50;;
3573;SDS011;1801;51.050;6.246;2023-10-31T10:20:09;3.40;;;2.20;;
3573;SDS011;1801;51.050;6.246;2023-10-31T10:22:38;6.27;;;2.73;;
3573;SDS011;1801;51.050;6.246;2023-10-31T10:25:05;3.30;;;1.70;;
3573;SDS011;1801;51.050;6.246;2023-10-31T10:27:30;2.17;;;1.80;;
3573;SDS011;1801;51.050;6.246;2023-10-31T10:29:55;5.80;;;1.50;;
3573;SDS011;1801;51.050;6.246;2023-10-31T10:32:20;1.83;;;1.57;;
3573;SDS011;1801;51.050;6.246;2023-10-31T10:34:46;6.40;;;1.60;;
3573;SDS011;1801;51.050;6.246;2023-10-31T10:37:11;5.73;;;1.70;;
3573;SDS011;1801;51.050;6.246;2023-10-31T10:39:37;3.53;;;1.73;;
3573;SDS011;1801;51.050;6.246;2023-10-31T10:42:05;3.40;;;2.07;;
3573;SDS011;1801;51.050;6.246;2023-10-31T10:44:34;5.43;;;2.07;;
3573;SDS011;1801;51.050;6.246;2023-10-31T10:47:04;8.13;;;2.90;;
3573;SDS011;1801;51.050;6.246;2023-10-31T10:49:32;3.03;;;2.07;;
3573;SDS011;1801;51.050;6.246;2023-10-31T10:51:58;2.50;;;2.30;;
3573;SDS011;1801;51.050;6.246;2023-10-31T10:54:37;6.03;;;2.60;;
3573;SDS011;1801;51.050;6.246;2023-10-31T10:57:19;6.13;;;2.43;;
3573;SDS011;1801;51.050;6.246;2023-10-31T10:59:47;7.33;;;3.60;;
3573;SDS011;1801;51.050;6.246;2023-10-31T11:02:16;3.17;;;2.87;;
3573;SDS011;1801;51.050;6.246;2023-10-31T11:04:42;3.30;;;2.10;;
3573;SDS011;1801;51.050;6.246;2023-10-31T11:07:08;3.93;;;2.83;;
3573;SDS011;1801;51.050;6.246;2023-10-31T11:09:33;2.80;;;2.50;;
3573;SDS011;1801;51.050;6.246;2023-10-31T11:11:59;3.57;;;2.47;;
3573;SDS011;1801;51.050;6.246;2023-10-31T11:14:25;5.33;;;3.20;;
3573;SDS011;1801;51.050;6.246;2023-10-31T11:16:54;6.73;;;2.77;;
3573;SDS011;1801;51.050;6.246;2023-10-31T11:19:20;7.13;;;2.53;;
3573;SDS011;1801;51.050;6.246;2023-10-31T11:22:00;2.50;;;2.30;;
3573;SDS011;1801;51.050;6.246;2023-10-31T11:24:26;6.70;;;2.73;;
3573;SDS011;1801;51.050;6.246;2023-10-31T11:26:53;4.70;;;2.40;;
3573;SDS011;1801;51.050;6.246;2023-10-31T11:29:18;2.50;;;2.30;;
3573;SDS011;1801;51.050;6.246;2023-10-31T11:31:43;2.50;;;2.10;;
3573;SDS011;1801;51.050;6.246;2023-10-31T11:34:09;3.63;;;1.50;;
3573;SDS011;1801;51.050;6.246;2023-10-31T11:36:37;4.93;;;1.97;;
3573;SDS011;1801;51.050;6.246;2023-10-31T11:39:12;2.90;;;1.83;;
3573;SDS011;1801;51.050;6.246;2023-10-31T11:41:38;5.10;;;2.13;;
3573;SDS011;1801;51.050;6.246;2023-10-31T11:44:03;4.03;;;2.57;;
3573;SDS011;1801;51.050;6.246;2023-10-31T11:46:29;3.40;;;2.30;;
3573;SDS011;1801;51.050;6.246;2023-10-31T11:48:54;3.97;;;1.67;;
3573;SDS011;1801;51.050;6.246;2023-10-31T11:51:21;3.17;;;1.63;;
3573;SDS011;1801;51.050;6.246;2023-10-31T11:53:46;2.83;;;1.70;;
3573;SDS011;1801;51.050;6.246;2023-10-31T11:56:12;8.30;;;2.00;;
3573;SDS011;1801;51.050;6.246;2023-10-31T11:58:37;4.50;;;1.83;;
3573;SDS011;1801;51.050;6.246;2023-10-31T12:01:06;6.47;;;1.93;;
3573;SDS011;1801;51.050;6.246;2023-10-31T12:06:03;2.10;;;1.20;;
3573;SDS011;1801;51.050;6.246;2023-10-31T12:08:30;2.00;;;1.40;;
3573;SDS011;1801;51.050;6.246;2023-10-31T12:11:11;1.80;;;1.10;;
3573;SDS011;1801;51.050;6.246;2023-10-31T12:13:38;5.23;;;1.67;;
3573;SDS011;1801;51.050;6.246;2023-10-31T12:16:04;7.93;;;1.90;;
3573;SDS011;1801;51.050;6.246;2023-10-31T12:18:30;3.13;;;1.50;;
3573;SDS011;1801;51.050;6.246;2023-10-31T12:20:55;5.37;;;1.63;;
3573;SDS011;1801;51.050;6.246;2023-10-31T12:23:21;3.83;;;1.53;;
3573;SDS011;1801;51.050;6.246;2023-10-31T12:25:49;8.10;;;1.40;;
3573;SDS011;1801;51.050;6.246;2023-10-31T12:28:21;5.33;;;2.10;;
3573;SDS011;1801;51.050;6.246;2023-10-31T12:30:47;6.13;;;1.73;;
3573;SDS011;1801;51.050;6.246;2023-10-31T12:33:12;6.73;;;1.43;;
3573;SDS011;1801;51.050;6.246;2023-10-31T12:35:38;3.60;;;1.50;;
3573;SDS011;1801;51.050;6.246;2023-10-31T12:38:03;2.00;;;1.43;;
3573;SDS011;1801;51.050;6.246;2023-10-31T12:40:29;6.30;;;1.23;;
3573;SDS011;1801;51.050;6.246;2023-10-31T12:42:54;6.53;;;1.30;;
3573;SDS011;1801;51.050;6.246;2023-10-31T12:45:19;7.30;;;1.73;;
3573;SDS011;1801;51.050;6.246;2023-10-31T12:47:45;6.30;;;1.30;;
3573;SDS011;1801;51.050;6.246;2023-10-31T12:50:25;8.43;;;1.77;;
3573;SDS011;1801;51.050;6.246;2023-10-31T12:52:51;2.03;;;1.40;;
3573;SDS011;1801;51.050;6.246;2023-10-31T12:55:17;4.27;;;1.80;;
3573;SDS011;1801;51.050;6.246;2023-10-31T12:57:43;12.47;;;1.47;;
3573;SDS011;1801;51.050;6.246;2023-10-31T13:00:10;2.10;;;1.37;;
3573;SDS011;1801;51.050;6.246;2023-10-31T13:02:37;2.73;;;1.40;;
3573;SDS011;1801;51.050;6.246;2023-10-31T13:05:12;2.93;;;1.30;;
3573;SDS011;1801;51.050;6.246;2023-10-31T13:07:38;2.23;;;1.33;;
3573;SDS011;1801;51.050;6.246;2023-10-31T13:10:06;3.33;;;1.30;;
3573;SDS011;1801;51.050;6.246;2023-10-31T13:12:32;2.27;;;1.73;;
3573;SDS011;1801;51.050;6.246;2023-10-31T13:14:58;5.33;;;1.87;;
3573;SDS011;1801;51.050;6.246;2023-10-31T13:17:23;13.23;;;1.90;;
3573;SDS011;1801;51.050;6.246;2023-10-31T13:19:48;6.53;;;2.20;;
3573;SDS011;1801;51.050;6.246;2023-10-31T13:22:14;7.53;;;2.13;;
3573;SDS011;1801;51.050;6.246;2023-10-31T13:24:39;4.40;;;1.60;;
3573;SDS011;1801;51.050;6.246;2023-10-31T13:27:05;2.50;;;1.80;;
3573;SDS011;1801;51.050;6.246;2023-10-31T13:29:31;3.33;;;1.50;;
3573;SDS011;1801;51.050;6.246;2023-10-31T13:31:56;7.67;;;1.77;;
3573;SDS011;1801;51.050;6.246;2023-10-31T13:34:21;7.80;;;1.43;;
3573;SDS011;1801;51.050;6.246;2023-10-31T13:36:48;7.97;;;1.57;;
3573;SDS011;1801;51.050;6.246;2023-10-31T13:39:13;9.03;;;2.30;;
3573;SDS011;1801;51.050;6.246;2023-10-31T13:41:38;4.93;;;1.37;;
3573;SDS011;1801;51.050;6.246;2023-10-31T13:44:03;5.77;;;1.23;;
3573;SDS011;1801;51.050;6.246;2023-10-31T13:46:29;3.30;;;1.67;;
3573;SDS011;1801;51.050;6.246;2023-10-31T13:48:54;4.80;;;2.60;;
3573;SDS011;1801;51.050;6.246;2023-10-31T13:51:19;5.83;;;1.60;;
3573;SDS011;1801;51.050;6.246;2023-10-31T13:53:44;3.60;;;1.27;;
3573;SDS011;1801;51.050;6.246;2023-10-31T13:56:10;5.23;;;1.67;;
3573;SDS011;1801;51.050;6.246;2023-10-31T13:58:35;3.50;;;1.30;;
3573;SDS011;1801;51.050;6.246;2023-10-31T14:01:00;4.83;;;1.77;;
3573;SDS011;1801;51.050;6.246;2023-10-31T14:03:26;3.53;;;1.20;;
3573;SDS011;1801;51.050;6.246;2023-10-31T14:05:51;6.77;;;1.93;;
3573;SDS011;1801;51.050;6.246;2023-10-31T14:08:16;3.50;;;1.20;;
3573;SDS011;1801;51.050;6.246;2023-10-31T14:10:41;6.10;;;3.17;;
3573;SDS011;1801;51.050;6.246;2023-10-31T14:13:10;2.97;;;1.33;;
3573;SDS011;1801;51.050;6.246;2023-10-31T14:15:35;8.60;;;1.60;;
3573;SDS011;1801;51.050;6.246;2023-10-31T14:18:01;4.23;;;1.50;;
3573;SDS011;1801;51.050;6.246;2023-10-31T14:20:27;8.70;;;2.03;;
3573;SDS011;1801;51.050;6.246;2023-10-31T14:22:52;7.03;;;1.40;;
3573;SDS011;1801;51.050;6.246;2023-10-31T14:25:18;4.47;;;1.47;;
3573;SDS011;1801;51.050;6.246;2023-10-31T14:27:43;6.73;;;1.80;;
3573;SDS011;1801;51.050;6.246;2023-10-31T14:30:09;2.30;;;1.30;;
3573;SDS011;1801;51.050;6.246;2023-10-31T14:32:34;2.80;;;1.27;;
3573;SDS011;1801;51.050;6.246;2023-10-31T14:34:59;5.03;;;1.17;;
3573;SDS011;1801;51.050;6.246;2023-10-31T14:37:24;4.20;;;1.80;;
3573;SDS011;1801;51.050;6.246;2023-10-31T14:39:50;1.60;;;1.00;;
3573;SDS011;1801;51.050;6.246;2023-10-31T14:42:15;2.20;;;1.20;;
3573;SDS011;1801;51.050;6.246;2023-10-31T14:44:40;7.30;;;2.93;;
3573;SDS011;1801;51.050;6.246;2023-10-31T14:47:05;2.37;;;1.60;;
3573;SDS011;1801;51.050;6.246;2023-10-31T14:49:30;3.67;;;1.40;;
3573;SDS011;1801;51.050;6.246;2023-10-31T14:51:56;6.43;;;1.10;;
3573;SDS011;1801;51.050;6.246;2023-10-31T14:54:21;3.30;;;1.73;;
3573;SDS011;1801;51.050;6.246;2023-10-31T14:56:46;4.50;;;1.53;;
3573;SDS011;1801;51.050;6.246;2023-10-31T14:59:11;2.83;;;1.50;;
3573;SDS011;1801;51.050;6.246;2023-10-31T15:01:37;1.90;;;1.23;;
3573;SDS011;1801;51.050;6.246;2023-10-31T15:04:02;2.17;;;1.30;;
3573;SDS011;1801;51.050;6.246;2023-10-31T15:06:27;2.10;;;1.50;;